Time;durP1;ratioP1;P1;durP2;ratioP2;P2;SDS_P1;SDS_P2;PMS_P1;PMS_P2;Temp;Humidity;BMP_temperature;BMP_pressure;BME280_temperature;BME280_humidity;BME280_pressure;Samples;Min_cycle;Max_cycle;Signal;HPM_P1;HPM_P2
2023/01/20 00:01:05;;;;;;;1.17;1.13;;;;;;;8.17;100.00;93729.03;5029240;28;20202;-76
2023/01/20 00:03:32;;;;;;;1.57;1.20;;;;;;;8.13;100.00;93740.88;5025926;28;20187;-74
2023/01/20 00:06:30;;;;;;;1.00;0.90;;;;;;;8.10;100.00;93748.28;5029205;28;20231;-77
2023/01/20 00:08:59;;;;;;;1.43;0.90;;;;;;;8.02;100.00;93724.31;5025744;28;20578;-75
2023/01/20 00:11:26;;;;;;;2.63;1.13;;;;;;;7.94;100.00;93691.03;5027498;28;20215;-75
2023/01/20 00:13:57;;;;;;;1.57;1.07;;;;;;;8.14;100.00;93716.53;5026743;28;20195;-74
2023/01/20 00:16:27;;;;;;;2.10;1.20;;;;;;;7.94;100.00;93582.38;5027471;28;20193;-74
2023/01/20 00:18:54;;;;;;;1.30;1.20;;;;;;;7.99;100.00;93550.69;5027972;28;20191;-75
2023/01/20 00:21:21;;;;;;;2.33;1.13;;;;;;;7.99;100.00;93497.13;5026484;28;20741;-74
2023/01/20 00:23:50;;;;;;;2.70;1.10;;;;;;;7.98;100.00;93505.13;5026689;28;20214;-80
2023/01/20 00:26:18;;;;;;;1.47;1.30;;;;;;;7.90;100.00;93534.72;5027519;28;20702;-74
2023/01/20 00:28:46;;;;;;;1.43;1.30;;;;;;;7.93;100.00;93539.44;5026619;28;20199;-75
2023/01/20 00:31:15;;;;;;;2.57;1.30;;;;;;;7.90;100.00;93534.72;5026231;28;20195;-75
2023/01/20 00:33:42;;;;;;;1.67;1.50;;;;;;;7.87;100.00;93544.75;5027417;28;20187;-74
2023/01/20 00:36:10;;;;;;;3.37;1.60;;;;;;;7.79;100.00;93542.50;5025345;28;20697;-74
2023/01/20 00:38:37;;;;;;;2.13;1.57;;;;;;;7.87;100.00;93545.53;5025886;28;20198;-75
2023/01/20 00:41:06;;;;;;;2.00;1.63;;;;;;;8.04;100.00;93532.66;5027739;28;20203;-74
2023/01/20 00:43:33;;;;;;;2.27;1.80;;;;;;;7.93;100.00;93510.19;5026152;28;20199;-76
2023/01/20 00:46:01;;;;;;;1.80;1.70;;;;;;;8.01;100.00;93520.19;5026088;28;20226;-75
2023/01/20 00:48:28;;;;;;;3.33;1.90;;;;;;;7.93;100.00;93507.63;5028640;28;20199;-75
2023/01/20 00:50:55;;;;;;;2.50;1.87;;;;;;;8.06;100.00;93515.09;5023646;28;20669;-74
2023/01/20 00:53:22;;;;;;;4.83;2.33;;;;;;;8.17;100.00;93531.59;5026014;28;20225;-75
2023/01/20 00:55:49;;;;;;;3.67;2.10;;;;;;;8.17;100.00;93529.00;5027757;28;20702;-75
2023/01/20 00:58:18;;;;;;;2.87;2.00;;;;;;;8.15;100.00;93520.69;5025558;28;20198;-75
2023/01/20 01:00:47;;;;;;;3.83;2.30;;;;;;;8.22;100.00;93501.44;5026092;28;20197;-75
2023/01/20 01:03:13;;;;;;;2.37;2.03;;;;;;;8.29;100.00;93524.59;5027928;28;20194;-75
2023/01/20 01:05:40;;;;;;;3.03;1.90;;;;;;;8.18;100.00;93486.59;5025226;28;20258;-75
2023/01/20 01:08:07;;;;;;;1.73;1.47;;;;;;;8.16;100.00;93484.25;5026061;28;20203;-75
2023/01/20 01:10:34;;;;;;;1.50;1.40;;;;;;;8.15;100.00;93467.16;5025408;28;20194;-75
2023/01/20 01:13:02;;;;;;;1.23;1.13;;;;;;;8.24;100.00;93496.81;5024649;28;20206;-75
2023/01/20 01:15:31;;;;;;;1.77;1.27;;;;;;;8.31;100.00;93491.53;5025418;28;20560;-76
2023/01/20 01:17:59;;;;;;;1.33;1.23;;;;;;;8.35;100.00;93501.19;5027493;28;20202;-75
2023/01/20 01:20:26;;;;;;;1.30;1.20;;;;;;;8.44;100.00;93499.78;5024734;28;20195;-75
2023/01/20 01:22:54;;;;;;;1.10;1.00;;;;;;;8.46;100.00;93502.91;5025692;28;20207;-75
2023/01/20 01:25:21;;;;;;;2.17;1.10;;;;;;;8.48;100.00;93513.06;5027623;28;20215;-75
2023/01/20 01:27:48;;;;;;;2.40;1.10;;;;;;;8.52;100.00;93503.78;5025541;28;20650;-76
2023/01/20 01:30:15;;;;;;;1.40;1.00;;;;;;;8.62;100.00;93495.41;5025178;28;20202;-75
2023/01/20 01:32:43;;;;;;;1.20;1.10;;;;;;;8.68;100.00;93497.06;5027768;28;20602;-74
2023/01/20 01:35:10;;;;;;;1.20;1.10;;;;;;;8.73;100.00;93503.09;5025848;28;20666;-75
2023/01/20 01:37:36;;;;;;;1.50;1.13;;;;;;;8.80;100.00;93487.41;5026116;28;20191;-74
2023/01/20 01:40:04;;;;;;;1.97;1.30;;;;;;;8.86;100.00;93504.63;5027524;28;20898;-75
2023/01/20 01:42:31;;;;;;;1.33;1.13;;;;;;;8.95;100.00;93490.22;5028230;28;20248;-75
2023/01/20 01:45:34;;;;;;;2.10;1.07;;;;;;;8.98;100.00;93482.78;5029438;28;20218;-74
2023/01/20 01:48:07;;;;;;;2.87;1.17;;;;;;;9.07;100.00;93496.09;5029380;28;20209;-74
2023/01/20 01:50:39;;;;;;;2.03;1.20;;;;;;;9.09;100.00;93505.22;5031530;28;20587;-74
2023/01/20 01:53:09;;;;;;;2.40;1.20;;;;;;;9.04;100.00;93512.91;5029513;28;20191;-74
2023/01/20 01:55:49;;;;;;;2.00;1.20;;;;;;;9.09;100.00;93507.81;5029173;28;20202;-75
2023/01/20 01:58:21;;;;;;;1.30;1.10;;;;;;;9.13;100.00;93508.13;5029594;28;20203;-75
2023/01/20 02:00:48;;;;;;;2.40;1.10;;;;;;;9.07;100.00;93504.66;5029366;28;20187;-75
2023/01/20 02:03:17;;;;;;;1.10;1.00;;;;;;;9.03;100.00;93502.81;5027146;28;20261;-75
2023/01/20 02:05:46;;;;;;;1.57;1.10;;;;;;;8.97;100.00;93498.56;5031785;28;20230;-74
2023/01/20 02:08:12;;;;;;;1.33;1.13;;;;;;;8.94;100.00;93497.22;5029390;28;20201;-75
2023/01/20 02:10:39;;;;;;;1.20;1.10;;;;;;;8.96;100.00;93491.81;5029146;28;20206;-77
2023/01/20 02:13:06;;;;;;;1.80;1.30;;;;;;;8.95;100.00;93493.59;5031181;28;20681;-77
2023/01/20 02:15:41;;;;;;;1.23;1.13;;;;;;;9.02;100.00;93486.47;5029063;28;20668;-77
2023/01/20 02:18:29;;;;;;;1.47;1.37;;;;;;;9.07;100.00;93473.56;5030377;28;20187;-77
2023/01/20 02:21:44;;;;;;;0.90;0.90;;;;;;;8.88;100.00;93468.88;5029543;28;20198;-77
2023/01/20 02:24:48;;;;;;;0.80;0.80;;;;;;;8.90;100.00;93482.38;5031252;28;20202;-77
2023/01/20 02:27:22;;;;;;;0.93;0.93;;;;;;;8.82;100.00;93488.75;5015024;28;20202;-76
2023/01/20 02:30:11;;;;;;;2.03;1.10;;;;;;;8.73;100.00;93484.97;5029087;28;20728;-74
2023/01/20 02:32:48;;;;;;;1.53;1.10;;;;;;;8.75;100.00;93471.78;5027701;28;20199;-77
2023/01/20 02:35:24;;;;;;;1.13;0.90;;;;;;;8.80;100.00;93461.53;5029890;28;20212;-78
2023/01/20 02:38:00;;;;;;;1.20;1.10;;;;;;;8.79;100.00;93470.31;5028062;28;20237;-78
2023/01/20 02:40:32;;;;;;;1.00;1.00;;;;;;;8.75;100.00;93466.59;5029088;28;20201;-75
2023/01/20 02:43:08;;;;;;;1.00;1.00;;;;;;;8.73;100.00;93451.31;5028110;28;20187;-76
2023/01/20 02:45:44;;;;;;;1.13;1.03;;;;;;;8.78;100.00;93453.97;5029538;28;20222;-76
2023/01/20 02:48:20;;;;;;;1.57;1.30;;;;;;;8.72;100.00;93451.53;5028531;28;20193;-76
2023/01/20 02:50:56;;;;;;;1.60;1.30;;;;;;;8.71;100.00;93447.38;5029047;28;20202;-74
2023/01/20 02:53:26;;;;;;;1.50;1.27;;;;;;;8.74;100.00;93449.50;5028509;28;20213;-75
2023/01/20 02:55:55;;;;;;;1.10;1.10;;;;;;;8.64;100.00;93446.75;5028378;28;20203;-75
2023/01/20 02:58:25;;;;;;;2.13;1.17;;;;;;;8.59;100.00;93436.31;5028723;28;20646;-75
2023/01/20 03:00:57;;;;;;;3.10;1.60;;;;;;;8.33;100.00;93409.25;5030526;28;20226;-75
2023/01/20 03:03:30;;;;;;;1.73;1.30;;;;;;;8.53;100.00;93427.69;5028051;28;20206;-76
2023/01/20 03:05:59;;;;;;;1.50;1.20;;;;;;;8.46;100.00;93416.69;5027697;28;20230;-75
2023/01/20 03:08:29;;;;;;;3.77;1.50;;;;;;;8.56;100.00;93437.59;5030733;28;20199;-75
2023/01/20 03:11:02;;;;;;;1.80;1.47;;;;;;;8.52;100.00;93445.03;5028550;28;20191;-75
2023/01/20 03:13:34;;;;;;;1.67;1.40;;;;;;;8.31;100.00;93432.75;5027439;28;20247;-75
2023/01/20 03:16:04;;;;;;;2.33;1.60;;;;;;;8.26;100.00;93426.69;5027093;28;20195;-75
2023/01/20 03:18:34;;;;;;;1.67;1.57;;;;;;;8.34;100.00;93429.72;5029891;28;20191;-78
2023/01/20 03:21:03;;;;;;;2.17;1.80;;;;;;;8.35;100.00;93439.06;5028225;28;20210;-77
2023/01/20 03:23:33;;;;;;;1.50;1.40;;;;;;;8.47;100.00;93439.78;5028700;28;20609;-74
2023/01/20 03:26:03;;;;;;;3.00;1.77;;;;;;;8.41;100.00;93425.19;5029990;28;20701;-75
2023/01/20 03:28:29;;;;;;;2.43;1.47;;;;;;;8.59;100.00;93436.31;5028482;28;20207;-75
2023/01/20 03:30:57;;;;;;;5.00;1.67;;;;;;;8.61;100.00;93431.69;5028163;28;20203;-75
2023/01/20 03:33:25;;;;;;;2.67;1.63;;;;;;;8.69;100.00;93431.28;5029392;28;20201;-75
2023/01/20 03:35:55;;;;;;;2.10;1.90;;;;;;;8.74;100.00;93431.38;5027667;28;20203;-76
2023/01/20 03:38:21;;;;;;;2.37;1.90;;;;;;;8.76;100.00;93435.31;5027630;28;20651;-74
2023/01/20 03:40:59;;;;;;;2.67;2.00;;;;;;;8.80;100.00;93435.63;5030124;28;20203;-75
2023/01/20 03:43:32;;;;;;;4.63;2.63;;;;;;;8.80;100.00;93440.81;5027448;28;20628;-75
2023/01/20 03:46:05;;;;;;;5.20;2.57;;;;;;;8.82;100.00;93449.91;5025642;28;20214;-74
2023/01/20 03:48:41;;;;;;;3.90;2.30;;;;;;;8.79;100.00;93447.00;5029781;28;20186;-75
2023/01/20 03:51:21;;;;;;;3.13;2.23;;;;;;;8.74;100.00;93421.03;5027100;28;20195;-74
2023/01/20 03:53:53;;;;;;;3.13;1.93;;;;;;;8.74;100.00;93413.25;5026168;28;20175;-75
2023/01/20 03:56:25;;;;;;;3.20;2.10;;;;;;;8.82;100.00;93408.47;5026078;28;20605;-75
2023/01/20 03:58:55;;;;;;;3.63;1.80;;;;;;;8.82;100.00;93399.91;5028621;28;20575;-75
2023/01/20 04:01:30;;;;;;;6.90;1.80;;;;;;;8.82;100.00;93400.69;5026510;28;20634;-75
2023/01/20 04:03:57;;;;;;;3.83;1.70;;;;;;;8.85;100.00;93395.03;5026396;28;20203;-74
2023/01/20 04:06:28;;;;;;;2.40;1.60;;;;;;;8.89;100.00;93390.13;5028338;28;20230;-74
2023/01/20 04:08:59;;;;;;;3.53;1.90;;;;;;;8.79;100.00;93374.47;5026781;28;20203;-75
2023/01/20 04:11:26;;;;;;;3.70;1.70;;;;;;;8.91;100.00;93385.53;5027265;28;20874;-75
2023/01/20 04:13:53;;;;;;;4.03;1.70;;;;;;;8.92;100.00;93384.47;5028563;28;20881;-75
2023/01/20 04:16:22;;;;;;;4.07;1.70;;;;;;;8.87;100.00;93394.78;5027028;28;20199;-76
2023/01/20 04:18:50;;;;;;;2.77;2.00;;;;;;;8.91;100.00;93385.53;5025975;28;20198;-75
2023/01/20 04:21:23;;;;;;;2.97;1.97;;;;;;;8.89;100.00;93372.78;5026253;28;20673;-75
2023/01/20 04:23:57;;;;;;;2.23;1.67;;;;;;;8.85;100.00;93361.34;5026329;28;21079;-75
2023/01/20 04:26:24;;;;;;;2.83;1.93;;;;;;;8.82;100.00;93366.22;5026397;28;20215;-75
2023/01/20 04:28:51;;;;;;;5.47;2.10;;;;;;;8.80;100.00;93363.84;5028526;28;20199;-75
2023/01/20 04:31:17;;;;;;;4.70;1.67;;;;;;;8.85;100.00;93363.94;5026417;28;20195;-76
2023/01/20 04:33:44;;;;;;;3.70;1.87;;;;;;;8.87;100.00;93356.72;5026234;28;20642;-75
2023/01/20 04:36:11;;;;;;;2.97;1.80;;;;;;;8.83;100.00;93355.59;5028728;28;20202;-75
2023/01/20 04:38:38;;;;;;;3.00;2.20;;;;;;;8.85;100.00;93356.19;5026409;28;20650;-75
2023/01/20 04:41:06;;;;;;;3.47;2.10;;;;;;;8.84;100.00;93359.00;5025758;28;20603;-75
2023/01/20 04:43:33;;;;;;;4.03;2.37;;;;;;;8.91;100.00;93360.41;5027655;28;20214;-75
2023/01/20 04:46:00;;;;;;;2.97;2.00;;;;;;;8.94;100.00;93380.66;5025674;28;20223;-76
2023/01/20 04:48:27;;;;;;;1.90;1.80;;;;;;;8.98;100.00;93379.13;5025966;28;20230;-76
2023/01/20 04:50:53;;;;;;;4.63;2.37;;;;;;;9.02;100.00;93385.41;5027854;28;20206;-75
2023/01/20 04:53:20;;;;;;;4.07;2.33;;;;;;;9.04;100.00;93387.75;5026573;28;20202;-76
2023/01/20 04:55:47;;;;;;;4.40;2.33;;;;;;;9.06;100.00;93394.25;5026122;28;20281;-76
2023/01/20 04:58:15;;;;;;;3.43;2.23;;;;;;;9.04;100.00;93398.91;5028689;28;20187;-74
2023/01/20 05:00:42;;;;;;;4.70;2.50;;;;;;;8.96;100.00;93414.06;5025873;28;20191;-76
2023/01/20 05:03:09;;;;;;;4.90;3.03;;;;;;;8.85;100.00;93413.16;5026057;28;20195;-73
2023/01/20 05:05:36;;;;;;;6.93;4.00;;;;;;;8.72;100.00;93407.50;5024927;28;20649;-73
2023/01/20 05:08:03;;;;;;;5.43;3.00;;;;;;;8.81;100.00;93434.56;5026060;28;20195;-72
2023/01/20 05:10:31;;;;;;;4.00;3.30;;;;;;;8.82;100.00;93438.75;5026325;28;20195;-71
2023/01/20 05:12:58;;;;;;;6.00;3.37;;;;;;;8.83;100.00;93429.97;5028045;28;20222;-71
2023/01/20 05:15:26;;;;;;;4.93;3.60;;;;;;;8.86;100.00;93417.31;5026145;28;20252;-72
2023/01/20 05:17:53;;;;;;;6.43;4.27;;;;;;;8.89;100.00;93416.03;5025082;28;20559;-73
2023/01/20 05:20:20;;;;;;;9.77;5.93;;;;;;;8.95;100.00;93404.72;5028125;28;20195;-72
2023/01/20 05:22:47;;;;;;;19.87;10.73;;;;;;;8.84;100.00;93397.84;5025098;28;20197;-74
2023/01/20 05:25:14;;;;;;;16.10;9.40;;;;;;;8.69;100.00;93418.34;5024858;28;20692;-72
2023/01/20 05:27:41;;;;;;;12.10;8.40;;;;;;;8.57;100.00;93426.22;5027757;28;20225;-72
2023/01/20 05:30:09;;;;;;;17.70;9.40;;;;;;;8.45;100.00;93417.72;5025331;28;20206;-73
2023/01/20 05:32:37;;;;;;;21.83;12.23;;;;;;;8.31;100.00;93416.47;5025857;28;20193;-72
2023/01/20 05:35:05;;;;;;;17.80;10.67;;;;;;;8.45;100.00;93444.41;5027411;28;20207;-72
2023/01/20 05:37:32;;;;;;;23.47;14.07;;;;;;;8.18;100.00;93445.97;5025439;28;20955;-72
2023/01/20 05:39:58;;;;;;;26.40;16.23;;;;;;;8.02;100.00;93438.19;5025141;28;20210;-72
2023/01/20 05:42:25;;;;;;;31.33;21.57;;;;;;;7.86;100.00;93434.53;5027611;28;20894;-72
2023/01/20 05:44:52;;;;;;;37.93;24.40;;;;;;;7.84;100.00;93419.25;5025954;28;20230;-72
2023/01/20 05:47:19;;;;;;;26.70;16.73;;;;;;;7.86;100.00;93408.69;5025811;28;20210;-73
2023/01/20 05:49:47;;;;;;;18.63;11.10;;;;;;;8.11;100.00;93400.59;5027699;28;20198;-72
2023/01/20 05:52:14;;;;;;;19.07;10.60;;;;;;;8.15;100.00;93399.88;5025837;28;20201;-72
2023/01/20 05:54:41;;;;;;;18.77;9.07;;;;;;;8.23;100.00;93407.25;5026147;28;20202;-73
2023/01/20 05:57:07;;;;;;;16.73;8.53;;;;;;;8.33;100.00;93381.56;5027316;28;20207;-71
2023/01/20 05:59:34;;;;;;;12.57;7.77;;;;;;;8.36;100.00;93359.59;5025449;28;20198;-71
2023/01/20 06:02:01;;;;;;;9.27;5.40;;;;;;;8.38;100.00;93397.16;5025400;28;20203;-72
2023/01/20 06:04:28;;;;;;;7.43;4.67;;;;;;;8.33;100.00;93420.41;5026387;28;20210;-72
2023/01/20 06:06:56;;;;;;;6.67;4.67;;;;;;;8.39;100.00;93397.97;5024492;28;20226;-72
2023/01/20 06:09:23;;;;;;;6.77;4.47;;;;;;;8.32;100.00;93412.84;5025839;28;20199;-71
2023/01/20 06:11:51;;;;;;;6.27;4.50;;;;;;;8.39;100.00;93414.28;5025425;28;20210;-72
2023/01/20 06:14:17;;;;;;;5.93;4.23;;;;;;;8.42;100.00;93393.09;5024374;28;20529;-72
2023/01/20 06:16:44;;;;;;;9.37;5.10;;;;;;;8.46;100.00;93394.19;5023506;28;20679;-73
2023/01/20 06:19:11;;;;;;;8.30;5.50;;;;;;;8.43;100.00;93417.16;5026575;28;20843;-71
2023/01/20 06:21:38;;;;;;;11.37;5.37;;;;;;;8.43;100.00;93425.72;5025052;28;20194;-72
2023/01/20 06:24:10;;;;;;;9.17;5.50;;;;;;;8.46;100.00;93404.53;5024659;28;20222;-72
2023/01/20 06:26:36;;;;;;;8.73;6.10;;;;;;;8.48;100.00;93401.72;5025876;28;20207;-72
2023/01/20 06:29:05;;;;;;;12.67;6.13;;;;;;;8.61;100.00;93416.16;5028722;28;20194;-71
2023/01/20 06:31:32;;;;;;;10.23;6.63;;;;;;;8.63;100.00;93408.94;5029393;28;20205;-71
2023/01/20 06:33:59;;;;;;;9.70;6.13;;;;;;;8.58;100.00;93396.69;5030708;28;20202;-71
2023/01/20 06:36:26;;;;;;;10.67;5.60;;;;;;;8.58;100.00;93404.47;5030118;28;20231;-72
2023/01/20 06:38:53;;;;;;;15.60;7.87;;;;;;;8.59;100.00;93421.56;5028916;28;20586;-71
2023/01/20 06:41:21;;;;;;;22.57;12.23;;;;;;;8.58;100.00;93420.00;5029290;28;20605;-72
2023/01/20 06:43:49;;;;;;;27.30;17.13;;;;;;;8.62;100.00;93408.16;5029092;28;20191;-72
2023/01/20 06:46:16;;;;;;;15.27;9.50;;;;;;;8.68;100.00;93401.25;5025439;28;20680;-72
2023/01/20 06:48:44;;;;;;;19.70;10.20;;;;;;;8.76;100.00;93391.28;5029505;28;20195;-72
2023/01/20 06:51:13;;;;;;;17.67;10.47;;;;;;;8.77;100.00;93385.09;5029774;28;20210;-71
2023/01/20 06:53:40;;;;;;;11.37;6.93;;;;;;;8.83;100.00;93398.88;5028591;28;20552;-71
2023/01/20 06:56:07;;;;;;;7.97;5.40;;;;;;;8.81;100.00;93391.34;5028590;28;20203;-72
2023/01/20 06:58:35;;;;;;;7.20;4.97;;;;;;;8.88;100.00;93391.97;5029950;28;20700;-73
2023/01/20 07:01:08;;;;;;;8.77;4.30;;;;;;;8.94;100.00;93391.00;5028598;28;20206;-72
2023/01/20 07:03:35;;;;;;;7.80;4.40;;;;;;;8.95;100.00;93397.75;5028144;28;20226;-73
2023/01/20 07:06:04;;;;;;;7.90;4.70;;;;;;;8.93;100.00;93401.59;5029804;28;20234;-74
2023/01/20 07:08:31;;;;;;;8.63;4.40;;;;;;;8.96;100.00;93390.75;5027864;28;20192;-74
2023/01/20 07:10:58;;;;;;;8.27;4.50;;;;;;;8.87;100.00;93390.38;5026113;28;20210;-73
2023/01/20 07:13:25;;;;;;;7.77;3.77;;;;;;;8.85;100.00;93391.66;5030199;28;20202;-73
2023/01/20 07:15:56;;;;;;;7.10;4.07;;;;;;;8.82;100.00;93379.19;5027794;28;20657;-74
2023/01/20 07:18:23;;;;;;;6.10;3.90;;;;;;;8.95;100.00;93397.75;5028278;28;20179;-73
2023/01/20 07:20:53;;;;;;;7.17;4.00;;;;;;;8.96;100.00;93394.13;5029683;28;20191;-73
2023/01/20 07:23:20;;;;;;;10.80;4.80;;;;;;;9.00;100.00;93395.22;5026336;28;20222;-73
2023/01/20 07:25:47;;;;;;;6.40;4.47;;;;;;;9.05;100.00;93399.69;5027866;28;20285;-72
2023/01/20 07:28:14;;;;;;;7.67;4.80;;;;;;;9.01;100.00;93388.22;5029811;28;20215;-73
2023/01/20 07:30:51;;;;;;;6.93;4.83;;;;;;;9.01;100.00;93391.63;5027978;28;20519;-74
2023/01/20 07:33:19;;;;;;;5.30;4.43;;;;;;;9.07;100.00;93388.06;5027935;28;20637;-74
2023/01/20 07:35:54;;;;;;;7.47;4.87;;;;;;;9.01;100.00;93383.84;5030097;28;20270;-72
2023/01/20 07:38:21;;;;;;;5.53;4.57;;;;;;;9.00;100.00;93377.06;5027852;28;20409;-72
2023/01/20 07:40:50;;;;;;;10.70;5.00;;;;;;;8.99;100.00;93369.56;5027329;28;20198;-72
2023/01/20 07:43:31;;;;;;;8.43;4.30;;;;;;;9.09;100.00;93367.13;5029105;28;20187;-73
2023/01/20 07:46:08;;;;;;;6.17;4.67;;;;;;;9.07;100.00;93362.16;5028097;28;20213;-72
2023/01/20 07:48:48;;;;;;;6.77;4.37;;;;;;;9.07;100.00;93362.16;5027712;28;20601;-73
2023/01/20 07:51:16;;;;;;;10.77;7.73;;;;;;;9.11;100.00;93365.06;5028196;28;20292;-73
2023/01/20 07:53:49;;;;;;;14.83;8.87;;;;;;;9.05;100.00;93377.16;5030568;28;20187;-73
2023/01/20 07:56:22;;;;;;;10.43;7.90;;;;;;;8.96;100.00;93354.50;5027525;28;20624;-73
2023/01/20 07:58:50;;;;;;;10.13;6.90;;;;;;;9.03;100.00;93344.75;5026463;28;20191;-72
2023/01/20 08:01:22;;;;;;;6.73;4.53;;;;;;;9.04;100.00;93351.47;5029427;28;20199;-72
2023/01/20 08:04:00;;;;;;;8.63;4.37;;;;;;;8.90;100.00;93365.81;5028104;28;20210;-74
2023/01/20 08:06:27;;;;;;;6.30;4.13;;;;;;;8.91;100.00;93362.22;5026838;28;20224;-75
2023/01/20 08:08:55;;;;;;;6.40;4.37;;;;;;;8.82;100.00;93341.13;5028310;28;20203;-71
2023/01/20 08:11:22;;;;;;;6.13;4.63;;;;;;;8.93;100.00;93340.22;5026300;28;20613;-70
2023/01/20 08:13:53;;;;;;;8.17;4.60;;;;;;;8.92;100.00;93327.47;5027020;28;20203;-70
2023/01/20 08:16:20;;;;;;;9.07;4.50;;;;;;;8.91;100.00;93321.53;5026211;28;20243;-70
2023/01/20 08:18:47;;;;;;;5.77;3.73;;;;;;;8.78;100.00;93321.88;5026451;28;20634;-70
2023/01/20 08:21:29;;;;;;;5.60;4.10;;;;;;;8.71;100.00;93342.00;5027478;28;20719;-72
2023/01/20 08:24:00;;;;;;;6.20;4.30;;;;;;;8.65;100.00;93344.75;5029088;28;20646;-73
2023/01/20 08:26:28;;;;;;;6.07;4.00;;;;;;;8.76;100.00;93349.84;5027922;28;20191;-71
2023/01/20 08:28:56;;;;;;;6.50;4.20;;;;;;;8.66;100.00;93361.88;5026556;28;20195;-70
2023/01/20 08:31:24;;;;;;;8.90;4.20;;;;;;;8.64;100.00;93343.97;5026658;28;20198;-71
2023/01/20 08:33:53;;;;;;;9.93;4.70;;;;;;;8.76;100.00;93344.66;5027117;28;20191;-70
2023/01/20 08:36:25;;;;;;;8.60;4.57;;;;;;;8.82;100.00;93343.69;5027032;28;20660;-73
2023/01/20 08:39:00;;;;;;;6.50;4.33;;;;;;;8.81;100.00;93328.38;5022764;28;20203;-74
2023/01/20 08:41:30;;;;;;;5.73;4.13;;;;;;;8.86;100.00;93311.09;5028381;28;20577;-73
2023/01/20 08:44:11;;;;;;;6.77;4.90;;;;;;;8.81;100.00;93294.72;5024515;28;20646;-73
2023/01/20 08:46:39;;;;;;;8.70;4.80;;;;;;;8.90;100.00;93288.88;5026013;28;20967;-74
2023/01/20 08:49:07;;;;;;;8.23;5.37;;;;;;;8.99;100.00;93294.44;5027634;28;20680;-74
2023/01/20 08:51:36;;;;;;;6.57;4.93;;;;;;;9.04;100.00;93295.25;5026897;28;20264;-76
2023/01/20 08:54:03;;;;;;;14.30;6.17;;;;;;;9.06;100.00;93272.47;5026822;28;20191;-79
2023/01/20 08:56:31;;;;;;;12.83;6.30;;;;;;;9.18;100.00;93264.56;5028807;28;20210;-80
2023/01/20 08:58:58;;;;;;;11.60;6.13;;;;;;;9.18;100.00;93269.75;5026939;28;20733;-80
2023/01/20 09:01:28;;;;;;;11.50;6.70;;;;;;;9.19;100.00;93270.53;5029319;28;20201;-80
2023/01/20 09:03:56;;;;;;;10.00;6.23;;;;;;;9.23;100.00;93271.63;5028098;28;20199;-74
2023/01/20 09:06:23;;;;;;;9.20;5.90;;;;;;;9.33;100.00;93280.28;5026130;28;20225;-73
2023/01/20 09:08:52;;;;;;;11.60;5.93;;;;;;;9.48;100.00;93270.06;5025717;28;20215;-74
2023/01/20 09:11:21;;;;;;;10.77;6.07;;;;;;;9.56;100.00;93274.03;5025573;28;20203;-74
2023/01/20 09:13:48;;;;;;;14.27;5.90;;;;;;;9.54;100.00;93266.50;5025126;28;20202;-74
2023/01/20 09:16:17;;;;;;;13.50;5.77;;;;;;;9.62;100.00;93275.63;5026323;28;20214;-73
2023/01/20 09:18:44;;;;;;;11.43;5.70;;;;;;;9.58;100.00;93303.88;5027694;28;20198;-74
2023/01/20 09:21:11;;;;;;;10.23;5.07;;;;;;;9.57;100.00;93278.19;5025764;28;20206;-73
2023/01/20 09:23:40;;;;;;;8.03;5.23;;;;;;;9.56;100.00;93279.22;5024483;28;20195;-75
2023/01/20 09:26:08;;;;;;;17.43;7.70;;;;;;;9.54;100.00;93292.44;5027392;28;20232;-73
2023/01/20 09:28:36;;;;;;;4.33;2.97;;;;;;;9.47;100.00;93271.09;5023027;28;20223;-74
2023/01/20 09:31:05;;;;;;;5.53;3.20;;;;;;;9.49;100.00;93279.44;5023479;28;20225;-74
2023/01/20 09:33:34;;;;;;;7.10;3.70;;;;;;;9.41;100.00;93266.88;5027130;28;20207;-75
2023/01/20 09:36:02;;;;;;;5.27;2.10;;;;;;;9.35;100.00;93267.09;5029835;28;20202;-75
2023/01/20 09:44:19;;;;;;;4.17;2.20;;;;;;;9.46;100.00;93269.53;5028373;28;20212;-74
2023/01/20 09:47:19;;;;;;;2.90;1.97;;;;;;;9.34;100.00;93276.69;5027933;28;20688;-73
2023/01/20 09:53:04;;;;;;;3.13;2.10;;;;;;;9.45;100.00;93278.34;5029510;28;20221;-74
2023/01/20 09:55:39;;;;;;;2.83;2.00;;;;;;;9.57;100.00;93278.97;5028902;28;20221;-74
2023/01/20 09:58:16;;;;;;;4.90;2.77;;;;;;;9.62;100.00;93268.66;5028604;28;20186;-75
2023/01/20 10:00:49;;;;;;;5.33;2.53;;;;;;;9.72;100.00;93256.81;5027002;28;20670;-73
2023/01/20 10:03:20;;;;;;;5.70;2.77;;;;;;;9.84;100.00;93252.25;5030186;28;20202;-73
2023/01/20 10:05:50;;;;;;;4.03;2.80;;;;;;;9.98;100.00;93255.97;5033340;28;20226;-74
2023/01/20 10:08:23;;;;;;;5.03;2.50;;;;;;;10.15;100.00;93267.81;5030304;28;20230;-74
2023/01/20 10:10:56;;;;;;;3.60;2.60;;;;;;;10.28;100.00;93258.78;5033283;28;20194;-73
2023/01/20 10:13:31;;;;;;;4.03;3.10;;;;;;;10.30;100.00;93240.38;5031471;28;20187;-73
2023/01/20 10:16:05;;;;;;;5.63;2.83;;;;;;;10.47;100.00;93249.59;5031321;28;20212;-74
2023/01/20 10:18:39;;;;;;;6.93;3.00;;;;;;;10.53;100.00;93232.22;5033468;28;20190;-75
2023/01/20 10:21:11;;;;;;;5.50;3.10;;;;;;;10.68;100.00;93217.47;5035280;28;20580;-75
2023/01/20 10:23:44;;;;;;;6.33;3.83;;;;;;;10.78;100.00;93204.53;5033402;28;20199;-73
2023/01/20 10:26:17;;;;;;;4.20;3.47;;;;;;;10.82;100.00;93221.16;5027365;28;20201;-74
2023/01/20 10:28:52;;;;;;;5.03;3.10;;;;;;;10.80;100.00;93219.84;5033134;28;20234;-74
2023/01/20 10:31:26;;;;;;;5.57;3.23;;;;;;;10.77;100.00;93225.53;5031524;28;20194;-74
2023/01/20 10:33:56;;;;;;;4.07;3.40;;;;;;;10.80;100.00;93236.22;5033168;28;20241;-74
2023/01/20 10:36:27;;;;;;;6.50;3.83;;;;;;;10.84;100.00;93213.13;5032685;28;20194;-75
2023/01/20 10:38:58;;;;;;;5.13;3.20;;;;;;;10.69;100.00;93221.63;5030452;28;20651;-73
2023/01/20 10:41:33;;;;;;;8.87;3.00;;;;;;;10.77;100.00;93235.94;5032918;28;20190;-74
2023/01/20 10:44:01;;;;;;;5.33;3.20;;;;;;;10.71;100.00;93226.56;5031758;28;20198;-74
2023/01/20 10:46:45;;;;;;;5.63;3.73;;;;;;;10.67;100.00;93217.72;5033051;28;20187;-73
2023/01/20 10:49:44;;;;;;;9.67;6.43;;;;;;;10.49;100.00;93213.75;5031843;28;20206;-74
2023/01/20 10:52:33;;;;;;;22.17;12.93;;;;;;;10.27;100.00;93231.28;5032575;28;20281;-74
2023/01/20 10:55:11;;;;;;;16.20;10.50;;;;;;;10.31;100.00;93218.56;5030986;28;20577;-73
2023/01/20 10:57:39;;;;;;;20.17;13.07;;;;;;;10.30;100.00;93215.22;5030897;28;20788;-74
2023/01/20 11:00:17;;;;;;;22.53;16.13;;;;;;;10.28;100.00;93222.44;5032949;28;20258;-73
2023/01/20 11:02:47;;;;;;;23.60;18.03;;;;;;;10.34;100.00;93231.84;5030698;28;20217;-74
2023/01/20 11:05:18;;;;;;;27.67;19.23;;;;;;;10.38;100.00;93232.13;5030216;28;20889;-74
2023/01/20 11:07:46;;;;;;;44.43;31.87;;;;;;;10.24;100.00;93229.94;5032257;28;20681;-74
2023/01/20 11:10:17;;;;;;;51.97;35.83;;;;;;;10.02;100.00;93231.84;5031890;28;20885;-73
2023/01/20 11:12:47;;;;;;;43.53;29.43;;;;;;;9.94;100.00;93229.72;5032556;28;20206;-73
2023/01/20 11:15:21;;;;;;;49.00;34.00;;;;;;;9.65;100.00;93224.06;5028805;28;20198;-74
2023/01/20 11:18:25;;;;;;;45.03;32.77;;;;;;;9.57;100.00;93227.13;5031952;28;20195;-74
2023/01/20 11:20:54;;;;;;;46.37;31.93;;;;;;;9.58;100.00;93235.69;5031962;28;20187;-73
2023/01/20 11:23:23;;;;;;;56.97;38.50;;;;;;;9.57;100.00;93240.09;5031837;28;20187;-73
2023/01/20 11:25:55;;;;;;;59.47;38.17;;;;;;;9.61;100.00;93222.97;5031697;28;20191;-73
2023/01/20 11:28:23;;;;;;;30.53;18.87;;;;;;;9.48;100.00;93204.47;5032165;28;20229;-72
2023/01/20 11:30:56;;;;;;;26.93;14.60;;;;;;;9.11;100.00;93225.91;5031831;28;20191;-72
2023/01/20 11:33:26;;;;;;;13.60;8.00;;;;;;;8.94;100.00;93221.84;5031790;28;20206;-71
2023/01/20 11:36:01;;;;;;;10.43;5.53;;;;;;;8.82;100.00;93227.16;5032403;28;20846;-73
2023/01/20 11:38:29;;;;;;;7.37;4.33;;;;;;;8.73;100.00;93228.59;5031348;28;20290;-74
2023/01/20 11:40:57;;;;;;;12.03;6.57;;;;;;;8.54;100.00;93241.03;5029371;28;20253;-73
2023/01/20 11:43:29;;;;;;;7.47;4.47;;;;;;;8.22;100.00;93236.72;5031714;28;20290;-75
2023/01/20 11:46:19;;;;;;;8.20;5.83;;;;;;;8.18;100.00;93248.53;5029485;28;20187;-75
2023/01/20 11:48:47;;;;;;;5.10;3.77;;;;;;;7.96;100.00;93256.25;5030708;28;20206;-74
2023/01/20 11:51:24;;;;;;;4.03;2.63;;;;;;;7.75;100.00;93256.97;5028764;28;20681;-75
2023/01/20 11:53:51;;;;;;;9.77;5.47;;;;;;;7.69;100.00;93248.34;5032227;28;20183;-75